sensor_id;sensor_type;location;lat;lon;timestamp;pressure;altitude;pressure_sealevel;temperature;humidity
73842;BME280;62184;52.006;5.924;2022-10-17T00:02:14;100895.41;;;15.94;68.51
73842;BME280;62184;52.006;5.924;2022-10-17T00:04:40;100895.53;;;15.91;68.82
73842;BME280;62184;52.006;5.924;2022-10-17T00:07:09;100902.00;;;15.87;69.29
73842;BME280;62184;52.006;5.924;2022-10-17T00:09:36;100900.38;;;15.83;69.79
73842;BME280;62184;52.006;5.924;2022-10-17T00:12:03;100914.97;;;15.79;70.31
73842;BME280;62184;52.006;5.924;2022-10-17T00:14:30;100908.75;;;15.77;70.40
73842;BME280;62184;52.006;5.924;2022-10-17T00:16:56;100905.34;;;15.73;70.72
73842;BME280;62184;52.006;5.924;2022-10-17T00:19:22;100906.28;;;15.72;71.18
73842;BME280;62184;52.006;5.924;2022-10-17T00:21:49;100903.53;;;15.74;70.79
73842;BME280;62184;52.006;5.924;2022-10-17T00:24:18;100908.69;;;15.78;70.67
73842;BME280;62184;52.006;5.924;2022-10-17T00:26:44;100895.16;;;15.80;70.93
73842;BME280;62184;52.006;5.924;2022-10-17T00:29:10;100896.91;;;15.81;71.01
73842;BME280;62184;52.006;5.924;2022-10-17T00:31:37;100885.19;;;15.82;70.92
73842;BME280;62184;52.006;5.924;2022-10-17T00:34:03;100889.63;;;15.83;70.88
73842;BME280;62184;52.006;5.924;2022-10-17T00:36:30;100886.72;;;15.87;70.10
73842;BME280;62184;52.006;5.924;2022-10-17T00:38:57;100890.13;;;15.91;70.36
73842;BME280;62184;52.006;5.924;2022-10-17T00:41:30;100892.69;;;15.94;70.60
73842;BME280;62184;52.006;5.924;2022-10-17T00:44:00;100889.13;;;15.93;70.51
73842;BME280;62184;52.006;5.924;2022-10-17T00:46:31;100898.03;;;15.95;70.73
73842;BME280;62184;52.006;5.924;2022-10-17T00:49:02;100898.97;;;15.94;70.95
73842;BME280;62184;52.006;5.924;2022-10-17T00:51:35;100897.09;;;15.96;71.33
73842;BME280;62184;52.006;5.924;2022-10-17T00:54:06;100899.63;;;15.99;71.25
73842;BME280;62184;52.006;5.924;2022-10-17T00:56:38;100898.59;;;16.02;71.08
73842;BME280;62184;52.006;5.924;2022-10-17T00:59:06;100892.28;;;16.03;71.35
73842;BME280;62184;52.006;5.924;2022-10-17T01:01:36;100892.16;;;16.06;71.24
73842;BME280;62184;52.006;5.924;2022-10-17T01:04:02;100881.28;;;16.07;71.29
73842;BME280;62184;52.006;5.924;2022-10-17T01:06:29;100883.91;;;16.09;70.85
73842;BME280;62184;52.006;5.924;2022-10-17T01:08:56;100885.59;;;16.12;70.71
73842;BME280;62184;52.006;5.924;2022-10-17T01:11:32;100882.75;;;16.15;70.25
73842;BME280;62184;52.006;5.924;2022-10-17T01:14:20;100884.47;;;16.16;70.17
73842;BME280;62184;52.006;5.924;2022-10-17T01:17:01;100883.63;;;16.15;70.22
73842;BME280;62184;52.006;5.924;2022-10-17T01:19:56;100871.88;;;16.16;70.37
73842;BME280;62184;52.006;5.924;2022-10-17T01:22:45;100866.50;;;16.16;70.50
73842;BME280;62184;52.006;5.924;2022-10-17T01:25:25;100878.88;;;16.20;70.67
73842;BME280;62184;52.006;5.924;2022-10-17T01:28:14;100865.41;;;16.20;70.73
73842;BME280;62184;52.006;5.924;2022-10-17T01:31:03;100861.78;;;16.21;70.61
73842;BME280;62184;52.006;5.924;2022-10-17T01:33:45;100867.16;;;16.21;70.53
73842;BME280;62184;52.006;5.924;2022-10-17T01:36:26;100862.66;;;16.22;70.30
73842;BME280;62184;52.006;5.924;2022-10-17T01:39:09;100859.97;;;16.22;70.28
73842;BME280;62184;52.006;5.924;2022-10-17T01:41:45;100861.72;;;16.23;70.08
73842;BME280;62184;52.006;5.924;2022-10-17T01:44:26;100854.63;;;16.20;70.52
73842;BME280;62184;52.006;5.924;2022-10-17T01:47:04;100851.88;;;16.22;70.61
73842;BME280;62184;52.006;5.924;2022-10-17T01:49:38;100849.19;;;16.22;70.61
73842;BME280;62184;52.006;5.924;2022-10-17T01:52:11;100848.22;;;16.23;70.79
73842;BME280;62184;52.006;5.924;2022-10-17T01:54:43;100840.03;;;16.24;70.72
73842;BME280;62184;52.006;5.924;2022-10-17T01:57:26;100845.44;;;16.24;70.76
73842;BME280;62184;52.006;5.924;2022-10-17T01:59:56;100839.09;;;16.25;71.24
73842;BME280;62184;52.006;5.924;2022-10-17T02:02:26;100849.75;;;16.28;71.21
73842;BME280;62184;52.006;5.924;2022-10-17T02:04:54;100844.22;;;16.31;70.93
73842;BME280;62184;52.006;5.924;2022-10-17T02:07:22;100845.00;;;16.33;71.30
73842;BME280;62184;52.006;5.924;2022-10-17T02:09:48;100845.00;;;16.33;71.50
73842;BME280;62184;52.006;5.924;2022-10-17T02:12:26;100840.47;;;16.34;71.37
73842;BME280;62184;52.006;5.924;2022-10-17T02:15:24;100832.31;;;16.35;71.38
73842;BME280;62184;52.006;5.924;2022-10-17T02:18:15;100830.44;;;16.37;71.95
73842;BME280;62184;52.006;5.924;2022-10-17T02:20:57;100821.34;;;16.40;71.46
73842;BME280;62184;52.006;5.924;2022-10-17T02:23:35;100826.47;;;16.44;71.84
73842;BME280;62184;52.006;5.924;2022-10-17T02:26:11;100838.16;;;16.45;71.60
73842;BME280;62184;52.006;5.924;2022-10-17T02:28:49;100832.75;;;16.45;71.85
73842;BME280;62184;52.006;5.924;2022-10-17T02:31:25;100834.56;;;16.44;72.19
73842;BME280;62184;52.006;5.924;2022-10-17T02:34:01;100831.94;;;16.43;72.59
73842;BME280;62184;52.006;5.924;2022-10-17T02:36:35;100827.50;;;16.42;72.78
73842;BME280;62184;52.006;5.924;2022-10-17T02:39:06;100837.28;;;16.44;72.89
73842;BME280;62184;52.006;5.924;2022-10-17T02:41:37;100841.66;;;16.47;72.43
73842;BME280;62184;52.006;5.924;2022-10-17T02:44:06;100834.50;;;16.46;72.74
73842;BME280;62184;52.006;5.924;2022-10-17T02:46:36;100831.88;;;16.44;72.51
73842;BME280;62184;52.006;5.924;2022-10-17T02:49:14;100826.47;;;16.44;72.58
73842;BME280;62184;52.006;5.924;2022-10-17T02:51:50;100824.72;;;16.43;72.51
73842;BME280;62184;52.006;5.924;2022-10-17T02:54:31;100819.34;;;16.43;72.45
73842;BME280;62184;52.006;5.924;2022-10-17T02:57:07;100829.19;;;16.44;72.57
73842;BME280;62184;52.006;5.924;2022-10-17T02:59:38;100832.81;;;16.43;73.19
73842;BME280;62184;52.006;5.924;2022-10-17T03:02:07;100838.22;;;16.43;72.72
73842;BME280;62184;52.006;5.924;2022-10-17T03:04:36;100830.19;;;16.42;73.41
73842;BME280;62184;52.006;5.924;2022-10-17T03:07:03;100827.44;;;16.43;73.40
73842;BME280;62184;52.006;5.924;2022-10-17T03:09:29;100828.22;;;16.45;73.64
73842;BME280;62184;52.006;5.924;2022-10-17T03:11:55;100823.66;;;16.48;73.66
73842;BME280;62184;52.006;5.924;2022-10-17T03:14:22;100823.66;;;16.48;74.04
73842;BME280;62184;52.006;5.924;2022-10-17T03:16:48;100827.13;;;16.50;73.91
73842;BME280;62184;52.006;5.924;2022-10-17T03:19:14;100830.56;;;16.53;73.42
73842;BME280;62184;52.006;5.924;2022-10-17T03:21:43;100829.69;;;16.53;73.86
73842;BME280;62184;52.006;5.924;2022-10-17T03:24:10;100820.50;;;16.57;73.86
73842;BME280;62184;52.006;5.924;2022-10-17T03:26:36;100816.69;;;16.61;73.87
73842;BME280;62184;52.006;5.924;2022-10-17T03:29:03;100814.66;;;16.66;73.74
73842;BME280;62184;52.006;5.924;2022-10-17T03:31:29;100825.22;;;16.70;73.94
73842;BME280;62184;52.006;5.924;2022-10-17T03:33:57;100826.03;;;16.72;73.63
73842;BME280;62184;52.006;5.924;2022-10-17T03:36:23;100837.69;;;16.73;73.43
73842;BME280;62184;52.006;5.924;2022-10-17T03:38:54;100836.81;;;16.72;73.45
73842;BME280;62184;52.006;5.924;2022-10-17T03:41:21;100835.00;;;16.73;73.56
73842;BME280;62184;52.006;5.924;2022-10-17T03:43:47;100840.38;;;16.73;73.31
73842;BME280;62184;52.006;5.924;2022-10-17T03:46:14;100843.84;;;16.75;73.57
73842;BME280;62184;52.006;5.924;2022-10-17T03:48:40;100834.03;;;16.74;73.01
73842;BME280;62184;52.006;5.924;2022-10-17T03:51:07;100835.75;;;16.75;73.43
73842;BME280;62184;52.006;5.924;2022-10-17T03:53:34;100829.34;;;16.77;73.42
73842;BME280;62184;52.006;5.924;2022-10-17T03:56:11;100840.88;;;16.81;73.40
73842;BME280;62184;52.006;5.924;2022-10-17T03:58:39;100831.84;;;16.82;73.31
73842;BME280;62184;52.006;5.924;2022-10-17T04:01:08;100839.75;;;16.85;73.23
73842;BME280;62184;52.006;5.924;2022-10-17T04:03:37;100832.47;;;16.87;73.09
73842;BME280;62184;52.006;5.924;2022-10-17T04:06:04;100831.50;;;16.88;73.04
73842;BME280;62184;52.006;5.924;2022-10-17T04:08:32;100828.88;;;16.87;73.11
73842;BME280;62184;52.006;5.924;2022-10-17T04:10:59;100835.16;;;16.87;72.85
73842;BME280;62184;52.006;5.924;2022-10-17T04:13:29;100832.47;;;16.87;72.96
73842;BME280;62184;52.006;5.924;2022-10-17T04:15:58;100838.66;;;16.89;72.74
73842;BME280;62184;52.006;5.924;2022-10-17T04:18:26;100834.13;;;16.90;72.89
73842;BME280;62184;52.006;5.924;2022-10-17T04:20:53;100838.72;;;16.88;72.93
73842;BME280;62184;52.006;5.924;2022-10-17T04:23:19;100839.69;;;16.87;72.81
73842;BME280;62184;52.006;5.924;2022-10-17T04:25:46;100846.09;;;16.84;73.17
73842;BME280;62184;52.006;5.924;2022-10-17T04:28:13;100861.50;;;16.82;73.46
73842;BME280;62184;52.006;5.924;2022-10-17T04:30:42;100859.59;;;16.84;73.58
73842;BME280;62184;52.006;5.924;2022-10-17T04:33:09;100850.47;;;16.87;73.52
73842;BME280;62184;52.006;5.924;2022-10-17T04:35:35;100849.53;;;16.88;73.85
73842;BME280;62184;52.006;5.924;2022-10-17T04:38:01;100844.94;;;16.90;73.67
73842;BME280;62184;52.006;5.924;2022-10-17T04:40:28;100848.41;;;16.92;73.81
73842;BME280;62184;52.006;5.924;2022-10-17T04:42:54;100847.38;;;16.94;73.79
73842;BME280;62184;52.006;5.924;2022-10-17T04:45:20;100848.09;;;16.98;73.94
73842;BME280;62184;52.006;5.924;2022-10-17T04:47:49;100856.84;;;17.03;73.64
73842;BME280;62184;52.006;5.924;2022-10-17T04:50:16;100858.50;;;17.05;73.78
73842;BME280;62184;52.006;5.924;2022-10-17T04:52:43;100868.25;;;17.08;73.87
73842;BME280;62184;52.006;5.924;2022-10-17T04:55:09;100869.94;;;17.10;73.79
73842;BME280;62184;52.006;5.924;2022-10-17T04:57:35;100877.88;;;17.13;73.93
73842;BME280;62184;52.006;5.924;2022-10-17T05:00:02;100876.75;;;17.17;73.66
73842;BME280;62184;52.006;5.924;2022-10-17T05:02:29;100881.13;;;17.20;73.74
73842;BME280;62184;52.006;5.924;2022-10-17T05:04:58;100889.06;;;17.23;73.16
73842;BME280;62184;52.006;5.924;2022-10-17T05:07:25;100895.25;;;17.25;73.20
73842;BME280;62184;52.006;5.924;2022-10-17T05:09:51;100892.56;;;17.25;73.39
73842;BME280;62184;52.006;5.924;2022-10-17T05:12:17;100894.38;;;17.25;72.99
73842;BME280;62184;52.006;5.924;2022-10-17T05:14:44;100887.25;;;17.24;73.17
73842;BME280;62184;52.006;5.924;2022-10-17T05:17:10;100889.06;;;17.23;72.80
73842;BME280;62184;52.006;5.924;2022-10-17T05:19:36;100892.47;;;17.27;72.75
73842;BME280;62184;52.006;5.924;2022-10-17T05:22:06;100899.78;;;17.25;73.08
73842;BME280;62184;52.006;5.924;2022-10-17T05:24:32;100900.75;;;17.24;72.68
73842;BME280;62184;52.006;5.924;2022-10-17T05:26:58;100891.84;;;17.22;73.02
73842;BME280;62184;52.006;5.924;2022-10-17T05:29:25;100905.50;;;17.18;72.81
73842;BME280;62184;52.006;5.924;2022-10-17T05:31:51;100902.00;;;17.16;72.65
73842;BME280;62184;52.006;5.924;2022-10-17T05:34:18;100894.78;;;17.17;73.07
73842;BME280;62184;52.006;5.924;2022-10-17T05:36:44;100899.16;;;17.19;72.99
73842;BME280;62184;52.006;5.924;2022-10-17T05:39:13;100899.94;;;17.22;73.01
73842;BME280;62184;52.006;5.924;2022-10-17T05:41:40;100883.56;;;17.25;72.73
73842;BME280;62184;52.006;5.924;2022-10-17T05:44:06;100901.53;;;17.26;73.04
73842;BME280;62184;52.006;5.924;2022-10-17T05:46:32;100897.00;;;17.26;72.69
73842;BME280;62184;52.006;5.924;2022-10-17T05:48:59;100895.91;;;17.30;72.59
73842;BME280;62184;52.006;5.924;2022-10-17T05:51:25;100906.63;;;17.32;72.89
73842;BME280;62184;52.006;5.924;2022-10-17T05:53:51;100918.19;;;17.34;73.05
73842;BME280;62184;52.006;5.924;2022-10-17T05:56:20;100910.91;;;17.36;72.43
73842;BME280;62184;52.006;5.924;2022-10-17T05:58:47;100912.72;;;17.35;72.75
73842;BME280;62184;52.006;5.924;2022-10-17T06:01:13;100911.84;;;17.35;72.78
73842;BME280;62184;52.006;5.924;2022-10-17T06:03:40;100913.59;;;17.36;72.46
73842;BME280;62184;52.006;5.924;2022-10-17T06:06:07;100912.81;;;17.34;72.51
73842;BME280;62184;52.006;5.924;2022-10-17T06:08:36;100910.03;;;17.35;72.51
73842;BME280;62184;52.006;5.924;2022-10-17T06:11:03;100919.00;;;17.36;72.65
73842;BME280;62184;52.006;5.924;2022-10-17T06:13:32;100921.88;;;17.33;72.28
73842;BME280;62184;52.006;5.924;2022-10-17T06:15:58;100915.59;;;17.32;72.55
73842;BME280;62184;52.006;5.924;2022-10-17T06:18:25;100916.47;;;17.33;72.47
73842;BME280;62184;52.006;5.924;2022-10-17T06:20:51;100916.63;;;17.30;72.60
73842;BME280;62184;52.006;5.924;2022-10-17T06:23:18;100913.13;;;17.28;72.74
73842;BME280;62184;52.006;5.924;2022-10-17T06:25:44;100906.91;;;17.26;72.46
73842;BME280;62184;52.006;5.924;2022-10-17T06:28:11;100908.84;;;17.24;72.51
73842;BME280;62184;52.006;5.924;2022-10-17T06:30:40;100914.41;;;17.20;73.10
73842;BME280;62184;52.006;5.924;2022-10-17T06:33:06;100931.63;;;17.18;73.16
73842;BME280;62184;52.006;5.924;2022-10-17T06:35:33;100934.38;;;17.16;72.91
73842;BME280;62184;52.006;5.924;2022-10-17T06:37:59;100940.66;;;17.17;73.24
73842;BME280;62184;52.006;5.924;2022-10-17T06:40:26;100940.50;;;17.20;73.12
73842;BME280;62184;52.006;5.924;2022-10-17T06:42:53;100945.66;;;17.25;73.65
73842;BME280;62184;52.006;5.924;2022-10-17T06:45:19;100946.41;;;17.28;73.32
73842;BME280;62184;52.006;5.924;2022-10-17T06:47:48;100942.69;;;17.31;73.15
73842;BME280;62184;52.006;5.924;2022-10-17T06:50:15;100937.09;;;17.34;73.01
73842;BME280;62184;52.006;5.924;2022-10-17T06:52:41;100929.66;;;17.39;72.86
73842;BME280;62184;52.006;5.924;2022-10-17T06:55:08;100946.47;;;17.44;72.85
73842;BME280;62184;52.006;5.924;2022-10-17T06:57:34;100949.09;;;17.45;72.80
73842;BME280;62184;52.006;5.924;2022-10-17T07:00:01;100944.59;;;17.46;72.89
73842;BME280;62184;52.006;5.924;2022-10-17T07:02:29;100948.09;;;17.48;73.22
73842;BME280;62184;52.006;5.924;2022-10-17T07:04:58;100951.47;;;17.51;72.80
73842;BME280;62184;52.006;5.924;2022-10-17T07:07:24;100952.22;;;17.55;72.89
73842;BME280;62184;52.006;5.924;2022-10-17T07:09:50;100960.91;;;17.62;72.67
73842;BME280;62184;52.006;5.924;2022-10-17T07:12:17;100958.59;;;17.71;72.62
73842;BME280;62184;52.006;5.924;2022-10-17T07:14:43;100959.13;;;17.78;72.28
73842;BME280;62184;52.006;5.924;2022-10-17T07:17:10;100965.09;;;17.84;72.38
73842;BME280;62184;52.006;5.924;2022-10-17T07:19:36;100961.97;;;17.92;72.34
73842;BME280;62184;52.006;5.924;2022-10-17T07:22:05;100974.38;;;17.96;72.02
73842;BME280;62184;52.006;5.924;2022-10-17T07:24:31;100975.09;;;18.00;72.18
73842;BME280;62184;52.006;5.924;2022-10-17T07:26:58;100973.97;;;18.04;71.62
73842;BME280;62184;52.006;5.924;2022-10-17T07:29:24;100982.69;;;18.09;71.80
73842;BME280;62184;52.006;5.924;2022-10-17T07:31:50;100985.16;;;18.13;72.07
73842;BME280;62184;52.006;5.924;2022-10-17T07:34:17;100982.03;;;18.21;71.60
73842;BME280;62184;52.006;5.924;2022-10-17T07:36:44;100972.63;;;18.28;71.69
73842;BME280;62184;52.006;5.924;2022-10-17T07:39:13;100978.50;;;18.36;71.25
73842;BME280;62184;52.006;5.924;2022-10-17T07:41:39;100969.88;;;18.45;71.31
73842;BME280;62184;52.006;5.924;2022-10-17T07:44:06;100971.25;;;18.54;71.29
73842;BME280;62184;52.006;5.924;2022-10-17T07:46:32;100968.09;;;18.61;71.09
73842;BME280;62184;52.006;5.924;2022-10-17T07:48:59;100978.69;;;18.66;70.87
73842;BME280;62184;52.006;5.924;2022-10-17T07:51:25;100973.16;;;18.67;70.68
73842;BME280;62184;52.006;5.924;2022-10-17T07:53:52;100969.56;;;18.67;70.53
73842;BME280;62184;52.006;5.924;2022-10-17T07:56:21;100975.09;;;18.65;70.42
73842;BME280;62184;52.006;5.924;2022-10-17T07:58:47;100992.22;;;18.66;70.51
73842;BME280;62184;52.006;5.924;2022-10-17T08:01:13;101012.09;;;18.65;70.18
73842;BME280;62184;52.006;5.924;2022-10-17T08:03:40;101018.56;;;18.62;69.99
73842;BME280;62184;52.006;5.924;2022-10-17T08:06:08;101019.44;;;18.63;70.06
73842;BME280;62184;52.006;5.924;2022-10-17T08:08:34;101038.38;;;18.63;70.34
73842;BME280;62184;52.006;5.924;2022-10-17T08:11:02;101051.97;;;18.61;70.39
73842;BME280;62184;52.006;5.924;2022-10-17T08:13:33;101062.88;;;18.60;70.16
73842;BME280;62184;52.006;5.924;2022-10-17T08:16:02;101091.06;;;18.56;70.57
73842;BME280;62184;52.006;5.924;2022-10-17T08:18:30;101098.47;;;18.52;70.53
73842;BME280;62184;52.006;5.924;2022-10-17T08:20:58;101118.47;;;18.50;70.57
73842;BME280;62184;52.006;5.924;2022-10-17T08:23:25;101117.59;;;18.49;71.11
73842;BME280;62184;52.006;5.924;2022-10-17T08:25:51;101111.38;;;18.47;71.37
73842;BME280;62184;52.006;5.924;2022-10-17T08:28:18;101123.94;;;18.48;71.47
73842;BME280;62184;52.006;5.924;2022-10-17T08:30:47;101119.78;;;18.41;71.44
73842;BME280;62184;52.006;5.924;2022-10-17T08:33:13;101132.19;;;18.28;71.92
73842;BME280;62184;52.006;5.924;2022-10-17T08:35:39;101134.56;;;18.17;73.13
73842;BME280;62184;52.006;5.924;2022-10-17T08:38:06;101109.75;;;18.09;73.55
73842;BME280;62184;52.006;5.924;2022-10-17T08:40:32;101093.94;;;18.01;74.00
73842;BME280;62184;52.006;5.924;2022-10-17T08:43:15;101102.50;;;17.92;74.47
73842;BME280;62184;52.006;5.924;2022-10-17T08:45:58;101105.38;;;17.89;74.32
73842;BME280;62184;52.006;5.924;2022-10-17T08:48:30;101100.19;;;17.84;75.16
73842;BME280;62184;52.006;5.924;2022-10-17T08:51:02;101082.22;;;17.83;75.54
73842;BME280;62184;52.006;5.924;2022-10-17T08:53:38;101097.34;;;17.87;75.72
73842;BME280;62184;52.006;5.924;2022-10-17T08:56:16;101139.72;;;17.87;75.47
73842;BME280;62184;52.006;5.924;2022-10-17T08:58:45;101170.63;;;17.81;75.80
73842;BME280;62184;52.006;5.924;2022-10-17T09:01:28;101173.53;;;17.77;76.06
73842;BME280;62184;52.006;5.924;2022-10-17T09:04:08;101173.47;;;17.78;75.88
73842;BME280;62184;52.006;5.924;2022-10-17T09:06:56;101196.03;;;17.77;76.19
73842;BME280;62184;52.006;5.924;2022-10-17T09:09:34;101173.53;;;17.77;76.40
73842;BME280;62184;52.006;5.924;2022-10-17T09:12:14;101143.69;;;17.80;76.62
73842;BME280;62184;52.006;5.924;2022-10-17T09:15:11;101144.47;;;17.82;76.72
73842;BME280;62184;52.006;5.924;2022-10-17T09:18:00;101130.59;;;17.89;76.90
73842;BME280;62184;52.006;5.924;2022-10-17T09:20:38;101135.66;;;17.95;76.63
73842;BME280;62184;52.006;5.924;2022-10-17T09:23:11;101148.94;;;18.00;78.21
73842;BME280;62184;52.006;5.924;2022-10-17T09:25:43;101149.13;;;17.97;78.60
73842;BME280;62184;52.006;5.924;2022-10-17T09:28:16;101144.72;;;17.94;78.98
73842;BME280;62184;52.006;5.924;2022-10-17T09:30:50;101148.44;;;17.92;78.85
73842;BME280;62184;52.006;5.924;2022-10-17T09:33:28;101137.63;;;17.92;79.48
73842;BME280;62184;52.006;5.924;2022-10-17T09:35:59;101144.72;;;17.94;79.34
73842;BME280;62184;52.006;5.924;2022-10-17T09:38:37;101160.81;;;17.98;80.32
73842;BME280;62184;52.006;5.924;2022-10-17T09:41:14;101171.63;;;17.98;80.68
73842;BME280;62184;52.006;5.924;2022-10-17T09:43:43;101159.06;;;17.97;80.60
73842;BME280;62184;52.006;5.924;2022-10-17T09:46:14;101149.19;;;17.95;80.68
73842;BME280;62184;52.006;5.924;2022-10-17T09:48:53;101219.47;;;17.95;80.79
73842;BME280;62184;52.006;5.924;2022-10-17T09:51:23;101237.75;;;17.90;81.40
73842;BME280;62184;52.006;5.924;2022-10-17T09:53:54;101215.53;;;17.84;81.83
73842;BME280;62184;52.006;5.924;2022-10-17T09:56:25;101190.31;;;17.83;82.19
73842;BME280;62184;52.006;5.924;2022-10-17T09:58:55;101193.91;;;17.84;82.95
73842;BME280;62184;52.006;5.924;2022-10-17T10:01:24;101189.53;;;17.81;83.14
73842;BME280;62184;52.006;5.924;2022-10-17T10:04:12;101165.38;;;17.78;83.04
73842;BME280;62184;52.006;5.924;2022-10-17T10:06:59;101153.47;;;17.82;83.37
73842;BME280;62184;52.006;5.924;2022-10-17T10:09:29;101140.66;;;17.86;83.46
73842;BME280;62184;52.006;5.924;2022-10-17T10:11:59;101149.50;;;17.89;83.55
73842;BME280;62184;52.006;5.924;2022-10-17T10:14:33;101139.63;;;17.88;83.33
73842;BME280;62184;52.006;5.924;2022-10-17T10:17:02;101145.75;;;17.92;83.87
73842;BME280;62184;52.006;5.924;2022-10-17T10:19:34;101153.66;;;17.97;83.75
73842;BME280;62184;52.006;5.924;2022-10-17T10:22:04;101188.72;;;17.98;84.01
73842;BME280;62184;52.006;5.924;2022-10-17T10:24:40;101214.94;;;17.96;83.70
73842;BME280;62184;52.006;5.924;2022-10-17T10:27:14;101206.97;;;17.93;83.42
73842;BME280;62184;52.006;5.924;2022-10-17T10:29:48;101198.06;;;17.91;83.76
73842;BME280;62184;52.006;5.924;2022-10-17T10:32:20;101189.72;;;17.95;83.93
73842;BME280;62184;52.006;5.924;2022-10-17T10:34:53;101187.84;;;17.98;84.25
73842;BME280;62184;52.006;5.924;2022-10-17T10:37:24;101193.94;;;18.01;83.71
73842;BME280;62184;52.006;5.924;2022-10-17T10:39:54;101209.22;;;18.02;83.70
73842;BME280;62184;52.006;5.924;2022-10-17T10:42:26;101205.63;;;18.02;83.88
73842;BME280;62184;52.006;5.924;2022-10-17T10:45:00;101207.38;;;18.03;83.59
73842;BME280;62184;52.006;5.924;2022-10-17T10:47:29;101205.41;;;18.06;83.85
73842;BME280;62184;52.006;5.924;2022-10-17T10:50:20;101208.81;;;18.10;83.95
73842;BME280;62184;52.006;5.924;2022-10-17T10:53:04;101214.91;;;18.15;83.69
73842;BME280;62184;52.006;5.924;2022-10-17T10:55:41;101224.84;;;18.14;83.76
73842;BME280;62184;52.006;5.924;2022-10-17T10:58:22;101232.78;;;18.17;83.65
73842;BME280;62184;52.006;5.924;2022-10-17T11:00:55;101244.88;;;18.27;83.62
73842;BME280;62184;52.006;5.924;2022-10-17T11:03:32;101252.84;;;18.30;83.12
73842;BME280;62184;52.006;5.924;2022-10-17T11:06:11;101256.56;;;18.28;83.51
73842;BME280;62184;52.006;5.924;2022-10-17T11:08:47;101264.63;;;18.29;83.41
73842;BME280;62184;52.006;5.924;2022-10-17T11:11:24;101267.25;;;18.31;82.96
73842;BME280;62184;52.006;5.924;2022-10-17T11:13:59;101275.19;;;18.34;83.36
73842;BME280;62184;52.006;5.924;2022-10-17T11:16:34;101277.81;;;18.36;83.17
73842;BME280;62184;52.006;5.924;2022-10-17T11:19:13;101287.47;;;18.41;83.01
73842;BME280;62184;52.006;5.924;2022-10-17T11:22:15;101288.13;;;18.46;82.82
73842;BME280;62184;52.006;5.924;2022-10-17T11:24:49;101284.19;;;18.53;82.53
73842;BME280;62184;52.006;5.924;2022-10-17T11:27:21;101293.78;;;18.59;82.14
73842;BME280;62184;52.006;5.924;2022-10-17T11:29:49;101302.50;;;18.65;82.09
73842;BME280;62184;52.006;5.924;2022-10-17T11:32:19;101301.56;;;18.66;82.00
73842;BME280;62184;52.006;5.924;2022-10-17T11:34:55;101298.59;;;18.71;82.50
73842;BME280;62184;52.006;5.924;2022-10-17T11:37:31;101294.53;;;18.80;82.08
73842;BME280;62184;52.006;5.924;2022-10-17T11:40:13;101296.13;;;18.84;81.58
73842;BME280;62184;52.006;5.924;2022-10-17T11:42:51;101296.78;;;18.89;82.03
73842;BME280;62184;52.006;5.924;2022-10-17T11:45:26;101301.94;;;18.93;81.16
73842;BME280;62184;52.006;5.924;2022-10-17T11:48:00;101298.28;;;18.94;81.53
73842;BME280;62184;52.006;5.924;2022-10-17T11:50:33;101302.50;;;19.00;81.24
73842;BME280;62184;52.006;5.924;2022-10-17T11:53:10;101296.91;;;19.03;81.25
73842;BME280;62184;52.006;5.924;2022-10-17T11:55:40;101301.22;;;19.07;80.96
73842;BME280;62184;52.006;5.924;2022-10-17T11:58:31;101315.72;;;19.06;80.38
73842;BME280;62184;52.006;5.924;2022-10-17T12:01:14;101315.06;;;19.01;80.25
73842;BME280;62184;52.006;5.924;2022-10-17T12:04:11;101320.47;;;19.01;80.64
73842;BME280;62184;52.006;5.924;2022-10-17T12:06:55;101324.78;;;19.05;80.34
73842;BME280;62184;52.006;5.924;2022-10-17T12:09:39;101321.28;;;19.03;80.22
73842;BME280;62184;52.006;5.924;2022-10-17T12:12:23;101317.97;;;18.98;80.40
73842;BME280;62184;52.006;5.924;2022-10-17T12:14:51;101317.16;;;18.96;80.11
73842;BME280;62184;52.006;5.924;2022-10-17T12:17:26;101321.75;;;18.94;80.03
73842;BME280;62184;52.006;5.924;2022-10-17T12:20:23;101320.19;;;18.90;79.95
73842;BME280;62184;52.006;5.924;2022-10-17T12:22:53;101323.84;;;18.89;79.95
73842;BME280;62184;52.006;5.924;2022-10-17T12:25:28;101320.25;;;18.88;80.25
73842;BME280;62184;52.006;5.924;2022-10-17T12:30:55;101322.41;;;18.99;80.03
73842;BME280;62184;52.006;5.924;2022-10-17T12:33:29;101317.16;;;18.96;80.03
73842;BME280;62184;52.006;5.924;2022-10-17T12:39:40;101321.34;;;19.01;80.16
73842;BME280;62184;52.006;5.924;2022-10-17T12:42:43;101330.34;;;19.02;79.70
73842;BME280;62184;52.006;5.924;2022-10-17T12:45:46;101329.06;;;19.09;79.59
73842;BME280;62184;52.006;5.924;2022-10-17T12:51:26;101331.91;;;19.07;79.42
73842;BME280;62184;52.006;5.924;2022-10-17T12:53:57;101334.59;;;19.07;79.18
73842;BME280;62184;52.006;5.924;2022-10-17T12:56:35;101327.25;;;19.09;79.12
73842;BME280;62184;52.006;5.924;2022-10-17T12:59:14;101331.03;;;19.07;79.11
73842;BME280;62184;52.006;5.924;2022-10-17T13:01:46;101331.09;;;19.05;78.94
73842;BME280;62184;52.006;5.924;2022-10-17T13:04:16;101336.50;;;19.05;78.77
73842;BME280;62184;52.006;5.924;2022-10-17T13:06:45;101335.56;;;19.06;78.84
73842;BME280;62184;52.006;5.924;2022-10-17T13:09:20;101339.75;;;19.12;78.98
73842;BME280;62184;52.006;5.924;2022-10-17T13:11:54;101349.31;;;19.19;78.71
73842;BME280;62184;52.006;5.924;2022-10-17T13:14:26;101347.41;;;19.21;78.62
73842;BME280;62184;52.006;5.924;2022-10-17T13:16:54;101351.88;;;19.22;77.94
73842;BME280;62184;52.006;5.924;2022-10-17T13:19:24;101353.78;;;19.20;77.92
73842;BME280;62184;52.006;5.924;2022-10-17T13:21:52;101357.38;;;19.21;78.22
73842;BME280;62184;52.006;5.924;2022-10-17T13:24:22;101360.06;;;19.21;78.00